Kezdőlap
METAR-TAF:

METAR-TAF

Repülőterek :

Urgench, Üzbegisztán

földrajzi szélesség: 41-35N, földrajzi hosszúság: 060-38-42E, magasság: 98 m

Jelenlegi meteorológiai megfigyelések

A jelentés 28 perccel ezelõtt készült, 07:30 UTC
Északkeleti szél 6 kt
Hőmérséklet 30°C
Páratartalom 31%
Légköri nyomás 1009 hPa
Látótávolság 10 km, vagy több
felhőtlen 1500 m magasságban, és nincs gomolyfelhõ

METAR: UTNU 130730Z 04006KT CAVOK 30/11 Q1009 R31/CLRD70 NOSIG

Idő: 12:58 (07:58 UTC)

Előrejelzés

A jelentés 2 órával és 58 perccel ezelõtt készült, 05:00 UTC
Az előrejelzés 13-én 06 óra UTC és 14-én 06 óra UTC között érvényes
Kelet-északkeleti szél 10 kt széllökések: 20 kt
Látótávolság: 8000 m
13-én 06 óra UTC és 13-én 12 óra UTC között ideiglenes
Keleti szél 12 kt
Szórványos felhőzet 6000 lábon, Cumulonimbus.
Szakadozott felhőzet 10000 lábon

TAF: UTNU 130500Z 1306/1406 06010G20KT 8000 NSC TEMPO 1306/1312 09012KT SCT060CB BKN100

Meteorológiai megfigyelések és előrejelzések több, mint 4000 repülőtéren (METAR és TAF jelentéseket).

A térképen piros és sárga pontok jelzik az elérhető meteorológiai állomásokat.

Mozgassa az egeret a pont fölött, hogy megjelenjen az állomás neve.

Azután kattintson az időjárási megfigyelések és előrejelzések megtekintéséhez.

A térkép megváltoztatása: kattintson a fekete keresztel jelölt zöld gombra ráközelítéshez, a vonallal jelölt zöld gombra távolításhoz, vagy a zöld nyilakra a szomszédos térképek eléréséhez.


METAR-TAF: